MMDO/DGO METAR and TAF weather

Enter ICAO airport designator
Station Type Date Time Source
MMDO METAR 2022/07/01 00:45 UTC NOAA

MMDO 010045Z 18013KT 10SM BKN025CB OVC070 21/11 A3025 RMK 8/36/


Station Type Date Time Source
MMDO Decoded METAR 2022/07/01 00:45 UTC NOAA

Durango Airport, Mexico (MMDO) 24-08N 104-32W
Jun 30, 2022 - 08:45 PM EDT / 2022.07.01 0045 UTC
Wind: from the S (180 degrees) at 15 MPH (13 KT):0
Visibility: 10 mile(s):0
Sky conditions: overcast
Weather: Cumulonimbus clouds observed
Temperature: 69 F (21 C)
Dew Point: 51 F (11 C)
Relative Humidity: 52%
Pressure (altimeter): 30.25 in. Hg (1024 hPa)
ob: MMDO 010045Z 18013KT 10SM BKN025CB OVC070 21/11 A3025 RMK 8/36/
cycle: 1

Station Type Date Time Source
MMDO TAF 2022/06/30 18:57 UTC NOAA

TAF MMDO 301655Z 3018/0118 04010KT P6SM BKN025
FM302000 06015KT 6SM VC RA BKN020CB
TEMPO 3023/0103 3SM TSRA BKN015CB OVC080
FM010300 00000KT 6SM RA BKN020 OVC080
FM011300 00000KT P6SM SCT020 BKN100

Example: see airport list